Time;durP1;ratioP1;P1;durP2;ratioP2;P2;SDS_P1;SDS_P2;PMS_P1;PMS_P2;Temp;Humidity;BMP_temperature;BMP_pressure;BME280_temperature;BME280_humidity;BME280_pressure;Samples;Min_cycle;Max_cycle;Signal;HPM_P1;HPM_P2
2022/12/23 00:02:51;;;;;;;23.47;16.80;;;7.00;1.00;;;;;;6223191;28;20651;-55
2022/12/23 00:05:54;;;;;;;22.03;16.93;;;6.70;1.00;;;;;;6232191;28;20324;-56
2022/12/23 00:08:57;;;;;;;25.03;17.87;;;7.00;1.00;;;;;;6228451;28;20235;-56
2022/12/23 00:15:21;;;;;;;24.67;18.77;;;6.60;1.00;;;;;;6208041;28;20231;-55
2022/12/23 00:18:26;;;;;;;25.07;18.23;;;6.70;1.00;;;;;;6207563;28;20289;-54
2022/12/23 00:21:29;;;;;;;21.63;16.70;;;6.80;1.00;;;;;;6224229;28;20243;-56
2022/12/23 00:24:32;;;;;;;23.77;17.03;;;6.70;1.00;;;;;;6232089;28;20235;-56
2022/12/23 00:27:35;;;;;;;18.50;14.87;;;6.60;1.00;;;;;;6230334;28;20247;-55
2022/12/23 00:30:46;;;;;;;23.50;17.97;;;6.60;1.00;;;;;;6205115;28;20390;-55
2022/12/23 00:33:53;;;;;;;18.73;16.13;;;6.70;1.00;;;;;;6225512;28;20425;-56
2022/12/23 00:36:56;;;;;;;19.53;16.13;;;6.60;1.00;;;;;;6223106;28;20692;-56
2022/12/23 00:43:19;;;;;;;20.03;16.70;;;6.70;1.00;;;;;;6232404;28;20692;-56
2022/12/23 00:46:22;;;;;;;21.53;16.33;;;6.60;1.00;;;;;;6232161;28;20246;-56
2022/12/23 00:49:41;;;;;;;19.17;15.83;;;6.70;1.00;;;;;;6219113;28;20243;-56
2022/12/23 00:52:44;;;;;;;19.43;16.70;;;6.90;1.00;;;;;;6207304;28;20671;-55
2022/12/23 00:55:47;;;;;;;18.50;14.87;;;6.60;1.00;;;;;;6206912;28;20243;-56
2022/12/23 00:58:50;;;;;;;20.80;16.07;;;6.70;1.00;;;;;;6207108;28;20250;-54
2022/12/23 01:08:50;;;;;;;23.00;17.27;;;6.60;1.00;;;;;;6371387;27;20573;-56
2022/12/23 01:11:54;;;;;;;22.30;17.23;;;6.50;1.00;;;;;;6353636;27;20867;-56
2022/12/23 01:14:57;;;;;;;18.40;15.90;;;6.70;1.00;;;;;;6345215;27;20244;-56
2022/12/23 01:17:59;;;;;;;22.90;17.50;;;6.90;1.00;;;;;;6302290;28;20251;-55
2022/12/23 01:21:03;;;;;;;29.47;20.60;;;6.70;1.00;;;;;;6303310;28;20244;-56
2022/12/23 01:24:08;;;;;;;29.00;19.70;;;6.80;1.00;;;;;;6310503;27;21003;-54
2022/12/23 01:27:11;;;;;;;25.30;19.53;;;6.70;1.00;;;;;;6327335;27;20235;-56
2022/12/23 01:30:15;;;;;;;25.07;18.47;;;6.90;1.00;;;;;;6327818;27;20523;-55
2022/12/23 01:33:18;;;;;;;21.50;17.57;;;6.60;1.00;;;;;;6332748;27;20239;-56
2022/12/23 01:36:21;;;;;;;21.97;17.63;;;6.80;1.00;;;;;;6331361;27;20234;-56
2022/12/23 01:39:26;;;;;;;22.23;17.03;;;6.90;1.00;;;;;;6348853;27;20231;-55
2022/12/23 01:42:44;;;;;;;23.30;17.03;;;6.80;1.00;;;;;;6297001;28;20586;-54
2022/12/23 01:45:47;;;;;;;21.43;17.70;;;6.80;1.00;;;;;;6301608;28;20241;-56
2022/12/23 01:48:52;;;;;;;26.80;18.77;;;6.80;1.00;;;;;;6301460;28;20252;-55
2022/12/23 01:51:55;;;;;;;21.53;16.13;;;6.80;1.00;;;;;;6301295;28;20233;-55
2022/12/23 01:54:59;;;;;;;28.30;21.83;;;7.00;1.00;;;;;;6301005;28;20233;-56
2022/12/23 01:58:09;;;;;;;26.67;20.57;;;6.90;1.00;;;;;;6300980;28;20248;-56
2022/12/23 02:04:32;;;;;;;26.23;19.50;;;6.80;1.00;;;;;;6343755;27;20247;-56
2022/12/23 02:11:20;;;;;;;23.20;18.10;;;6.80;1.00;;;;;;6331779;27;20279;-56
2022/12/23 02:18:10;;;;;;;21.97;17.40;;;6.60;1.00;;;;;;6320778;28;20377;-56
2022/12/23 02:21:25;;;;;;;27.17;19.30;;;6.80;1.00;;;;;;6309065;28;20236;-55
2022/12/23 02:25:02;;;;;;;24.30;19.30;;;6.60;1.00;;;;;;6283785;28;20229;-55
2022/12/23 02:28:30;;;;;;;26.90;19.37;;;6.70;1.00;;;;;;6283703;28;20233;-56
2022/12/23 02:31:43;;;;;;;26.43;20.10;;;6.70;1.00;;;;;;6289078;28;20236;-54
2022/12/23 02:34:53;;;;;;;23.80;17.47;;;6.90;1.00;;;;;;6320924;27;20239;-54
2022/12/23 02:38:04;;;;;;;21.17;16.90;;;6.60;1.00;;;;;;6320794;27;20241;-55
2022/12/23 02:41:15;;;;;;;23.17;17.17;;;6.70;1.00;;;;;;6296240;28;20642;-56
2022/12/23 02:44:28;;;;;;;28.90;19.87;;;6.70;1.00;;;;;;6287158;28;20229;-55
2022/12/23 02:47:37;;;;;;;29.87;19.83;;;6.90;1.00;;;;;;6285564;28;20804;-56
2022/12/23 02:50:44;;;;;;;28.00;19.30;;;6.70;1.00;;;;;;6284546;28;20237;-55
2022/12/23 02:53:51;;;;;;;26.90;19.50;;;6.90;1.00;;;;;;6296376;28;20232;-55
2022/12/23 02:56:55;;;;;;;27.13;19.47;;;6.90;1.00;;;;;;6309266;28;20701;-55
2022/12/23 03:00:00;;;;;;;29.93;19.57;;;6.90;1.00;;;;;;6308854;28;20233;-55
2022/12/23 03:03:04;;;;;;;26.40;19.33;;;6.70;1.00;;;;;;6332367;27;20234;-57
2022/12/23 03:06:19;;;;;;;30.53;18.63;;;6.90;1.00;;;;;;6330247;27;20372;-56
2022/12/23 03:09:30;;;;;;;27.97;18.70;;;7.00;1.00;;;;;;6333247;27;20485;-54
2022/12/23 03:12:43;;;;;;;25.40;18.47;;;6.80;1.00;;;;;;6326597;27;20240;-56
2022/12/23 03:15:57;;;;;;;22.53;17.80;;;6.70;1.00;;;;;;6308222;28;20243;-57
2022/12/23 03:19:10;;;;;;;26.17;17.90;;;6.90;1.00;;;;;;6307592;28;20255;-56
2022/12/23 03:22:20;;;;;;;27.47;20.43;;;6.90;1.00;;;;;;6282902;28;20463;-55
2022/12/23 03:25:27;;;;;;;25.93;18.80;;;6.70;1.00;;;;;;6282901;28;20269;-55
2022/12/23 03:28:35;;;;;;;31.63;19.83;;;6.70;1.00;;;;;;6282689;28;20241;-56
2022/12/23 03:31:40;;;;;;;26.10;20.60;;;6.90;1.00;;;;;;6288089;28;20237;-56
2022/12/23 03:34:49;;;;;;;29.50;20.87;;;6.70;1.00;;;;;;6320365;28;20235;-55
2022/12/23 03:37:56;;;;;;;31.67;22.27;;;7.00;1.00;;;;;;6331076;27;20560;-56
2022/12/23 03:41:04;;;;;;;32.17;22.93;;;6.80;1.00;;;;;;6332682;28;20688;-56
2022/12/23 03:44:10;;;;;;;32.37;22.43;;;6.80;1.00;;;;;;6332455;27;20398;-55
2022/12/23 03:47:17;;;;;;;27.43;19.57;;;6.80;1.00;;;;;;6316185;28;20251;-55
2022/12/23 03:50:23;;;;;;;25.17;19.20;;;6.80;1.00;;;;;;6307608;28;20807;-56
2022/12/23 03:53:30;;;;;;;34.37;20.23;;;6.90;1.00;;;;;;6313490;27;20235;-54
2022/12/23 03:56:38;;;;;;;23.20;17.97;;;6.90;1.00;;;;;;6331160;28;20260;-56
2022/12/23 03:59:45;;;;;;;23.50;18.00;;;7.00;1.00;;;;;;6306456;28;20244;-56
2022/12/23 04:02:57;;;;;;;27.07;19.30;;;7.00;1.00;;;;;;6319392;27;20233;-55
2022/12/23 04:06:04;;;;;;;31.93;19.93;;;6.90;1.00;;;;;;6326639;28;20482;-56
2022/12/23 04:09:09;;;;;;;24.97;18.13;;;6.80;1.00;;;;;;6328757;28;20397;-55
2022/12/23 04:12:13;;;;;;;25.30;18.57;;;6.90;1.00;;;;;;6331778;28;20236;-55
2022/12/23 04:15:21;;;;;;;26.97;19.30;;;6.90;1.00;;;;;;6324946;28;20243;-55
2022/12/23 04:18:24;;;;;;;28.33;18.97;;;6.90;1.00;;;;;;6306033;28;20247;-55
2022/12/23 04:21:28;;;;;;;24.97;18.63;;;6.70;1.00;;;;;;6306964;28;20232;-56
2022/12/23 04:24:31;;;;;;;27.60;18.23;;;7.10;1.00;;;;;;6305878;28;20244;-55
2022/12/23 04:27:34;;;;;;;24.50;17.90;;;6.90;1.00;;;;;;6305934;28;20682;-56
2022/12/23 04:30:37;;;;;;;24.73;17.93;;;6.90;1.00;;;;;;6306046;28;20327;-55
2022/12/23 04:33:40;;;;;;;25.70;18.53;;;7.00;1.00;;;;;;6312102;27;20236;-55
2022/12/23 04:36:44;;;;;;;24.53;18.37;;;6.90;1.00;;;;;;6320918;28;21088;-55
2022/12/23 04:39:47;;;;;;;26.13;18.43;;;7.10;1.00;;;;;;6329974;28;20708;-55
2022/12/23 04:42:50;;;;;;;28.57;19.03;;;6.90;1.00;;;;;;6327914;27;20862;-55
2022/12/23 04:45:53;;;;;;;21.33;17.07;;;6.80;1.00;;;;;;6324356;28;20274;-55
2022/12/23 04:48:56;;;;;;;28.47;20.30;;;6.90;1.00;;;;;;6327571;27;20618;-55
2022/12/23 04:52:01;;;;;;;26.70;20.37;;;6.90;1.00;;;;;;6325986;28;20227;-56
2022/12/23 04:55:04;;;;;;;30.17;20.93;;;6.90;1.00;;;;;;6330558;28;20263;-55
2022/12/23 04:58:07;;;;;;;29.80;20.20;;;6.80;1.00;;;;;;6330210;27;20325;-54
2022/12/23 05:01:11;;;;;;;31.70;20.33;;;6.90;1.00;;;;;;6329709;28;20278;-55
2022/12/23 05:04:14;;;;;;;26.23;17.97;;;6.80;1.00;;;;;;6326169;27;20232;-55
2022/12/23 05:07:19;;;;;;;29.30;19.67;;;7.00;1.00;;;;;;6321586;28;20259;-56
2022/12/23 05:10:22;;;;;;;24.57;18.37;;;6.90;1.00;;;;;;6310402;28;20239;-55
2022/12/23 05:13:25;;;;;;;34.17;20.40;;;6.80;1.00;;;;;;6329168;28;20228;-54
2022/12/23 05:16:28;;;;;;;27.73;18.67;;;6.90;1.00;;;;;;6319884;28;20628;-55
2022/12/23 05:19:31;;;;;;;32.50;20.83;;;6.90;1.00;;;;;;6326685;27;20318;-56
2022/12/23 05:22:35;;;;;;;33.67;20.30;;;6.80;1.00;;;;;;6329607;27;20614;-55
2022/12/23 05:25:39;;;;;;;26.83;19.70;;;6.90;1.00;;;;;;6328303;28;20244;-56
2022/12/23 05:28:44;;;;;;;30.90;20.30;;;6.90;1.00;;;;;;6329765;27;20231;-55
2022/12/23 05:31:47;;;;;;;27.53;19.07;;;6.90;1.00;;;;;;6331134;27;20601;-56
2022/12/23 05:34:50;;;;;;;26.63;19.23;;;7.00;1.00;;;;;;6324374;27;20232;-55
2022/12/23 05:37:56;;;;;;;27.67;19.13;;;6.90;1.00;;;;;;6328952;27;20243;-56
2022/12/23 05:40:59;;;;;;;22.03;17.87;;;7.20;1.00;;;;;;6328661;27;20255;-54
2022/12/23 05:44:02;;;;;;;28.40;19.53;;;6.90;1.00;;;;;;6329155;28;20228;-56
2022/12/23 05:47:05;;;;;;;26.67;18.80;;;7.20;1.00;;;;;;6330178;27;20235;-56
2022/12/23 05:50:09;;;;;;;25.43;17.40;;;7.00;1.00;;;;;;6327004;27;20246;-56
2022/12/23 05:53:14;;;;;;;27.67;17.93;;;6.90;1.00;;;;;;6330350;27;20236;-56
2022/12/23 05:56:16;;;;;;;22.90;17.30;;;7.00;1.00;;;;;;6334239;27;20236;-55
2022/12/23 05:59:20;;;;;;;26.63;18.00;;;7.00;1.00;;;;;;6319647;27;20277;-55
2022/12/23 06:02:23;;;;;;;28.43;19.13;;;7.00;1.00;;;;;;6332341;27;20814;-56
2022/12/23 06:05:26;;;;;;;25.60;17.63;;;6.90;1.00;;;;;;6333684;28;20634;-57
2022/12/23 06:08:30;;;;;;;24.97;17.53;;;7.00;1.00;;;;;;6330046;27;20231;-55
2022/12/23 06:11:33;;;;;;;24.10;17.00;;;6.90;1.00;;;;;;6339258;28;20228;-56
2022/12/23 06:14:36;;;;;;;19.60;16.07;;;7.00;1.00;;;;;;6341950;27;20236;-54
2022/12/23 06:17:39;;;;;;;27.90;19.87;;;7.00;1.00;;;;;;6329762;27;20237;-56
2022/12/23 06:20:45;;;;;;;24.93;18.00;;;7.00;1.00;;;;;;6334387;27;20306;-55
2022/12/23 06:23:49;;;;;;;24.03;16.73;;;7.00;1.00;;;;;;6334979;28;20647;-55
2022/12/23 06:26:52;;;;;;;24.50;18.00;;;7.10;1.00;;;;;;6329915;28;20236;-54
2022/12/23 06:29:59;;;;;;;30.37;20.57;;;7.00;1.00;;;;;;6332994;27;20626;-57
2022/12/23 06:33:02;;;;;;;29.43;19.10;;;7.00;1.00;;;;;;6332717;27;20288;-56
2022/12/23 06:36:06;;;;;;;29.83;19.83;;;7.10;1.00;;;;;;6331686;27;20638;-56
2022/12/23 06:39:11;;;;;;;29.70;20.23;;;7.00;1.00;;;;;;6332166;27;20228;-54
2022/12/23 06:42:14;;;;;;;25.60;19.03;;;7.10;1.00;;;;;;6333451;27;20262;-56
2022/12/23 06:45:17;;;;;;;32.43;20.40;;;7.10;1.00;;;;;;6329829;27;20246;-55
2022/12/23 06:48:20;;;;;;;25.30;17.83;;;7.20;1.00;;;;;;6333161;28;20242;-56
2022/12/23 06:51:23;;;;;;;33.13;20.47;;;7.30;1.00;;;;;;6328682;27;20235;-55
2022/12/23 06:54:28;;;;;;;31.87;20.40;;;7.20;1.00;;;;;;6327113;28;20240;-55
2022/12/23 06:57:30;;;;;;;23.97;17.47;;;7.10;1.00;;;;;;6332840;27;20244;-56
2022/12/23 07:00:33;;;;;;;33.80;21.03;;;7.20;1.00;;;;;;6333119;28;20236;-55
2022/12/23 07:03:37;;;;;;;32.17;20.27;;;7.20;1.00;;;;;;6326787;28;20488;-57
2022/12/23 07:06:40;;;;;;;31.30;19.53;;;7.20;1.00;;;;;;6333142;27;20285;-54
2022/12/23 07:09:44;;;;;;;26.20;18.10;;;7.20;1.00;;;;;;6327445;28;20240;-55
2022/12/23 07:12:47;;;;;;;26.47;18.23;;;7.20;1.00;;;;;;6307211;28;20229;-56
2022/12/23 07:15:53;;;;;;;27.13;17.87;;;7.10;1.00;;;;;;6329627;27;20236;-56
2022/12/23 07:18:56;;;;;;;22.23;15.87;;;7.20;1.00;;;;;;6331500;27;20232;-56
2022/12/23 07:21:59;;;;;;;24.70;16.77;;;7.30;1.00;;;;;;6332505;27;20235;-56
2022/12/23 07:25:03;;;;;;;22.93;16.20;;;7.30;1.00;;;;;;6332025;27;20731;-54
2022/12/23 07:28:06;;;;;;;22.10;15.17;;;7.30;1.00;;;;;;6328137;28;20239;-55
2022/12/23 07:31:09;;;;;;;25.33;14.07;;;7.40;1.00;;;;;;6332017;27;20723;-55
2022/12/23 07:34:12;;;;;;;27.57;16.60;;;7.40;1.00;;;;;;6325720;27;20235;-56
2022/12/23 07:37:15;;;;;;;25.07;15.23;;;7.70;1.00;;;;;;6327965;28;20259;-55
2022/12/23 07:40:19;;;;;;;22.53;15.03;;;7.50;1.00;;;;;;6327374;28;20246;-57
2022/12/23 07:43:22;;;;;;;21.83;14.40;;;7.50;1.00;;;;;;6332194;28;20240;-56
2022/12/23 07:46:25;;;;;;;25.77;14.47;;;7.50;1.00;;;;;;6331016;27;20240;-54
2022/12/23 07:49:28;;;;;;;27.53;14.33;;;7.50;1.00;;;;;;6330986;27;20255;-56
2022/12/23 07:52:31;;;;;;;24.67;13.93;;;7.50;1.00;;;;;;6331454;28;20232;-56
2022/12/23 07:55:36;;;;;;;25.13;15.20;;;7.50;1.00;;;;;;6322104;27;20243;-56
2022/12/23 07:58:39;;;;;;;27.43;14.47;;;7.60;1.00;;;;;;6328340;27;20246;-55
2022/12/23 08:01:42;;;;;;;26.80;14.80;;;7.80;1.00;;;;;;6331253;27;20288;-56
2022/12/23 08:04:45;;;;;;;26.57;14.17;;;7.50;1.00;;;;;;6326358;27;20667;-55
2022/12/23 08:07:49;;;;;;;34.17;15.60;;;7.50;1.00;;;;;;6326234;27;20380;-55
2022/12/23 08:10:57;;;;;;;27.70;15.30;;;7.50;1.00;;;;;;6330901;27;20575;-56
2022/12/23 08:14:00;;;;;;;27.40;14.90;;;7.50;1.00;;;;;;6330581;27;20235;-57
2022/12/23 08:17:03;;;;;;;24.50;14.93;;;7.50;1.00;;;;;;6327702;27;20481;-56
2022/12/23 08:20:08;;;;;;;28.93;15.60;;;7.50;1.00;;;;;;6330590;28;20235;-55
2022/12/23 08:23:11;;;;;;;25.97;14.70;;;7.50;1.00;;;;;;6320204;28;20263;-54
2022/12/23 08:26:17;;;;;;;30.77;15.87;;;7.40;1.00;;;;;;6326839;27;20244;-54
2022/12/23 08:29:20;;;;;;;29.90;15.00;;;7.50;1.00;;;;;;6324840;28;20240;-55
2022/12/23 08:32:26;;;;;;;28.20;15.53;;;7.50;1.00;;;;;;6328763;27;20239;-55
2022/12/23 08:35:29;;;;;;;31.47;15.93;;;7.70;1.00;;;;;;6327291;27;20615;-54
2022/12/23 08:38:32;;;;;;;32.27;16.07;;;7.60;1.00;;;;;;6326805;28;20239;-56
2022/12/23 08:41:39;;;;;;;34.83;15.57;;;7.60;1.00;;;;;;6330071;28;20285;-56
2022/12/23 08:44:42;;;;;;;26.43;14.67;;;7.60;1.00;;;;;;6329556;28;20365;-55
2022/12/23 08:47:45;;;;;;;30.30;15.00;;;7.60;1.00;;;;;;6325315;28;20250;-55
2022/12/23 08:50:48;;;;;;;30.00;15.67;;;7.60;1.00;;;;;;6330942;27;20532;-55
2022/12/23 08:53:53;;;;;;;27.67;15.10;;;7.50;1.00;;;;;;6330359;27;20228;-56
2022/12/23 08:57:04;;;;;;;35.00;16.37;;;7.50;1.00;;;;;;6325252;27;20232;-55
2022/12/23 09:00:08;;;;;;;33.03;16.07;;;7.50;1.00;;;;;;6315020;27;20237;-56
2022/12/23 09:03:11;;;;;;;31.63;17.67;;;7.50;1.00;;;;;;6311691;27;20247;-55
2022/12/23 09:06:16;;;;;;;30.67;15.90;;;7.50;1.00;;;;;;6323613;28;20407;-56
2022/12/23 09:09:26;;;;;;;34.33;16.90;;;7.50;1.00;;;;;;6329237;27;20278;-57
2022/12/23 09:12:31;;;;;;;32.87;16.93;;;7.70;1.00;;;;;;6330128;28;20269;-57
2022/12/23 09:15:37;;;;;;;35.43;17.83;;;7.50;1.00;;;;;;6329398;27;20236;-56
2022/12/23 09:18:41;;;;;;;34.27;17.67;;;7.50;1.00;;;;;;6324568;28;20236;-55
2022/12/23 09:21:44;;;;;;;30.50;16.83;;;7.60;1.00;;;;;;6328916;28;20236;-56
2022/12/23 09:24:47;;;;;;;30.27;15.77;;;7.50;1.00;;;;;;6330014;28;20310;-55
2022/12/23 09:27:51;;;;;;;30.80;15.67;;;7.50;1.00;;;;;;6329736;27;20246;-56
2022/12/23 09:30:54;;;;;;;32.70;14.60;;;7.50;1.00;;;;;;6334686;28;20235;-56
2022/12/23 09:33:57;;;;;;;26.33;14.53;;;7.60;1.00;;;;;;6315400;27;20613;-55
2022/12/23 09:37:02;;;;;;;28.87;14.93;;;7.60;1.00;;;;;;6319634;28;20847;-54
2022/12/23 09:40:06;;;;;;;27.80;15.47;;;7.60;1.00;;;;;;6334124;27;20243;-56
2022/12/23 09:43:21;;;;;;;37.57;17.27;;;7.60;1.00;;;;;;6332703;27;20263;-57
2022/12/23 09:46:27;;;;;;;37.10;17.70;;;7.60;1.00;;;;;;6335419;27;20247;-56
2022/12/23 09:49:30;;;;;;;37.90;17.67;;;7.60;1.00;;;;;;6335177;28;20845;-54
2022/12/23 09:52:42;;;;;;;36.03;18.10;;;7.70;1.00;;;;;;6335284;27;20243;-57
2022/12/23 09:55:50;;;;;;;31.97;18.10;;;7.70;1.00;;;;;;6306350;28;20254;-55
2022/12/23 09:59:03;;;;;;;36.93;18.73;;;7.80;1.00;;;;;;6309298;27;20244;-56
2022/12/23 10:02:18;;;;;;;34.27;17.10;;;7.90;1.00;;;;;;6304067;28;20240;-59
2022/12/23 10:05:28;;;;;;;38.77;19.17;;;7.90;1.00;;;;;;6350211;27;20224;-56
2022/12/23 10:08:34;;;;;;;32.27;17.40;;;7.80;1.00;;;;;;6337244;27;20236;-55
2022/12/23 10:11:41;;;;;;;33.33;17.40;;;7.80;1.00;;;;;;6334329;27;20227;-57
2022/12/23 10:14:47;;;;;;;34.87;18.47;;;7.90;1.00;;;;;;6334825;27;20234;-56
2022/12/23 10:17:54;;;;;;;32.40;17.83;;;7.90;1.00;;;;;;6333352;27;20244;-58
2022/12/23 10:21:02;;;;;;;33.13;18.33;;;7.80;1.00;;;;;;6334190;28;20255;-55
2022/12/23 10:24:12;;;;;;;34.47;17.20;;;7.80;1.00;;;;;;6333774;27;20232;-54
2022/12/23 10:27:25;;;;;;;26.67;15.70;;;7.80;1.00;;;;;;6330180;27;20604;-56
2022/12/23 10:30:33;;;;;;;25.83;15.67;;;7.80;1.00;;;;;;6334206;27;20482;-55
2022/12/23 10:34:04;;;;;;;24.93;15.93;;;7.90;1.00;;;;;;6330077;27;20276;-56
2022/12/23 10:37:16;;;;;;;27.27;15.70;;;7.90;1.00;;;;;;6328968;27;20246;-54
2022/12/23 10:40:25;;;;;;;29.10;16.67;;;8.00;1.00;;;;;;6326224;28;20585;-55
2022/12/23 10:43:37;;;;;;;29.30;15.87;;;8.00;1.00;;;;;;6325311;27;20237;-55
2022/12/23 10:46:49;;;;;;;22.20;14.50;;;8.10;1.00;;;;;;6327985;28;20734;-55
2022/12/23 10:50:04;;;;;;;21.93;14.83;;;8.10;1.00;;;;;;6324101;27;20825;-55
2022/12/23 10:53:13;;;;;;;23.90;15.80;;;8.20;1.00;;;;;;6333053;27;20236;-56
2022/12/23 10:56:17;;;;;;;23.03;15.90;;;8.30;1.00;;;;;;6330973;27;20240;-55
2022/12/23 10:59:25;;;;;;;23.07;15.30;;;8.30;1.00;;;;;;6333417;27;20771;-56
2022/12/23 11:02:44;;;;;;;21.13;15.00;;;8.40;1.00;;;;;;6329899;27;21542;-55
2022/12/23 11:05:50;;;;;;;20.00;14.90;;;8.30;1.00;;;;;;6332645;27;20297;-55
2022/12/23 11:08:56;;;;;;;21.03;15.53;;;8.40;1.00;;;;;;6332372;27;20641;-56
2022/12/23 11:12:01;;;;;;;16.63;13.23;;;8.40;1.00;;;;;;6331258;27;20239;-55
2022/12/23 11:15:06;;;;;;;19.43;13.90;;;8.50;1.00;;;;;;6332846;28;20723;-56
2022/12/23 11:18:18;;;;;;;16.27;13.53;;;8.50;1.00;;;;;;6332560;27;20353;-56
2022/12/23 11:21:21;;;;;;;15.67;12.40;;;8.50;1.00;;;;;;6329725;27;20260;-56
2022/12/23 11:24:25;;;;;;;14.33;10.87;;;8.50;1.00;;;;;;6332143;28;20533;-55
2022/12/23 11:27:28;;;;;;;12.33;10.40;;;8.50;1.00;;;;;;6332573;27;20288;-56
2022/12/23 11:30:35;;;;;;;10.43;9.33;;;8.50;1.00;;;;;;6323544;28;20728;-56
2022/12/23 11:33:45;;;;;;;9.93;8.87;;;8.40;1.00;;;;;;6329286;27;20323;-55
2022/12/23 11:36:53;;;;;;;10.33;9.30;;;8.40;1.00;;;;;;6329989;27;20251;-56
2022/12/23 11:40:03;;;;;;;9.97;9.07;;;8.30;1.00;;;;;;6304219;28;20299;-56
2022/12/23 11:43:14;;;;;;;11.17;10.13;;;8.30;1.00;;;;;;6307437;28;20689;-57
2022/12/23 11:46:25;;;;;;;11.47;10.37;;;8.30;1.00;;;;;;6302121;28;20233;-56
2022/12/23 11:49:31;;;;;;;11.27;9.97;;;8.30;1.00;;;;;;6331481;28;20251;-56
2022/12/23 11:52:34;;;;;;;11.37;10.20;;;8.30;1.00;;;;;;6330968;28;20236;-55
2022/12/23 11:55:40;;;;;;;15.37;12.53;;;8.30;1.00;;;;;;6321717;28;20972;-56
2022/12/23 11:58:48;;;;;;;14.10;11.93;;;8.20;1.00;;;;;;6330919;28;20395;-56
2022/12/23 12:01:51;;;;;;;14.43;12.83;;;8.30;1.00;;;;;;6331177;27;20747;-56
2022/12/23 12:05:00;;;;;;;17.53;13.90;;;8.30;1.00;;;;;;6324506;28;20661;-55
2022/12/23 12:08:09;;;;;;;17.03;14.33;;;8.20;1.00;;;;;;6325705;28;20236;-55
2022/12/23 12:11:15;;;;;;;16.53;14.17;;;8.20;1.00;;;;;;6326306;28;20233;-57
2022/12/23 12:14:26;;;;;;;16.70;14.13;;;8.20;1.00;;;;;;6329958;27;20542;-55
2022/12/23 12:17:36;;;;;;;17.17;14.27;;;8.20;1.00;;;;;;6331031;28;20458;-55
2022/12/23 12:20:44;;;;;;;22.10;15.70;;;8.10;1.00;;;;;;6330360;27;20238;-55
2022/12/23 12:23:50;;;;;;;22.60;16.20;;;8.10;1.00;;;;;;6331063;28;20238;-55
2022/12/23 12:27:14;;;;;;;19.50;15.70;;;8.10;1.00;;;;;;6330433;27;20240;-55
2022/12/23 12:30:19;;;;;;;21.80;16.07;;;8.10;1.00;;;;;;6323598;28;20298;-55
2022/12/23 12:33:27;;;;;;;18.97;15.53;;;8.10;1.00;;;;;;6329238;27;20540;-56
2022/12/23 12:36:39;;;;;;;20.30;16.13;;;8.20;1.00;;;;;;6328773;27;20714;-56
2022/12/23 12:39:47;;;;;;;21.43;16.43;;;8.20;1.00;;;;;;6321618;28;20235;-57
2022/12/23 12:42:56;;;;;;;18.47;14.40;;;8.20;1.00;;;;;;6331435;27;20227;-55
2022/12/23 12:46:11;;;;;;;18.23;14.20;;;8.20;1.00;;;;;;6325207;28;20228;-56
2022/12/23 12:49:22;;;;;;;17.10;15.30;;;8.30;1.00;;;;;;6330641;28;20236;-54
2022/12/23 12:52:27;;;;;;;15.47;13.87;;;8.20;1.00;;;;;;6329984;27;20235;-56
2022/12/23 12:55:35;;;;;;;14.63;13.03;;;8.20;1.00;;;;;;6325205;27;20235;-56
2022/12/23 12:58:40;;;;;;;14.80;13.33;;;8.30;1.00;;;;;;6326208;28;20336;-57
2022/12/23 13:01:52;;;;;;;12.87;11.57;;;8.30;1.00;;;;;;6330419;27;20247;-57
2022/12/23 13:05:22;;;;;;;14.77;12.17;;;8.40;1.00;;;;;;6312019;28;20712;-55
2022/12/23 13:08:58;;;;;;;13.60;12.20;;;8.50;1.00;;;;;;6330203;27;20266;-55
2022/12/23 13:12:10;;;;;;;13.00;11.80;;;8.60;1.00;;;;;;6324994;27;20283;-56
2022/12/23 13:15:22;;;;;;;12.77;11.67;;;8.60;1.00;;;;;;6331190;28;20394;-55
2022/12/23 13:18:34;;;;;;;12.33;11.03;;;8.60;1.00;;;;;;6337822;27;20239;-56
2022/12/23 13:21:43;;;;;;;13.37;12.00;;;8.60;1.00;;;;;;6320844;27;20230;-54
2022/12/23 13:25:01;;;;;;;14.43;11.90;;;8.60;1.00;;;;;;6323965;28;20244;-55
2022/12/23 13:28:20;;;;;;;12.37;11.17;;;8.50;1.00;;;;;;6330732;27;20247;-55
2022/12/23 13:31:38;;;;;;;11.77;10.67;;;8.50;1.00;;;;;;6330375;28;20236;-56
2022/12/23 13:34:49;;;;;;;11.57;10.57;;;8.40;1.00;;;;;;6326017;28;20239;-57
2022/12/23 13:37:59;;;;;;;14.70;12.33;;;8.30;1.00;;;;;;6325414;28;20233;-56
2022/12/23 13:41:16;;;;;;;11.13;10.13;;;8.20;1.00;;;;;;6321084;28;20243;-56
2022/12/23 13:44:20;;;;;;;11.87;10.87;;;8.20;1.00;;;;;;6329506;28;20224;-55
2022/12/23 13:47:29;;;;;;;11.57;10.50;;;8.10;1.00;;;;;;6318315;27;20232;-55
2022/12/23 13:50:37;;;;;;;13.20;11.93;;;8.10;1.00;;;;;;6303949;28;20772;-55
2022/12/23 13:53:54;;;;;;;12.30;11.00;;;8.10;1.00;;;;;;6304539;28;20312;-56
2022/12/23 13:57:16;;;;;;;13.57;12.13;;;8.00;1.00;;;;;;6300214;28;20248;-55
2022/12/23 14:00:25;;;;;;;14.30;11.33;;;8.00;1.00;;;;;;6304656;28;20600;-56
2022/12/23 14:03:34;;;;;;;12.20;11.00;;;7.90;1.00;;;;;;6298927;28;20259;-55
2022/12/23 14:06:44;;;;;;;12.43;11.13;;;7.90;1.00;;;;;;6293010;28;20244;-56
2022/12/23 14:09:52;;;;;;;11.43;10.43;;;7.90;1.00;;;;;;6310774;28;20493;-54
2022/12/23 14:13:03;;;;;;;12.37;11.10;;;7.90;1.00;;;;;;6329431;28;20729;-55
2022/12/23 14:16:33;;;;;;;12.80;11.50;;;7.90;1.00;;;;;;6326678;27;20236;-54
2022/12/23 14:19:56;;;;;;;13.17;11.83;;;7.90;1.00;;;;;;6334875;27;20228;-55
2022/12/23 14:23:12;;;;;;;12.37;11.20;;;7.90;1.00;;;;;;6332615;27;20235;-56
2022/12/23 14:26:35;;;;;;;12.73;11.53;;;7.90;1.00;;;;;;6334267;27;20318;-55
2022/12/23 14:29:49;;;;;;;12.00;10.80;;;7.80;1.00;;;;;;6333108;27;20594;-54
2022/12/23 14:32:57;;;;;;;12.17;11.17;;;7.80;1.00;;;;;;6332296;27;20237;-56
2022/12/23 14:36:20;;;;;;;11.73;10.73;;;7.80;1.00;;;;;;6320947;27;20681;-60
2022/12/23 14:39:31;;;;;;;11.73;10.63;;;7.80;1.00;;;;;;6333309;27;20236;-56
2022/12/23 14:42:39;;;;;;;11.40;10.40;;;7.80;1.00;;;;;;6332900;27;20630;-54
2022/12/23 14:45:44;;;;;;;10.57;9.57;;;7.80;1.00;;;;;;6331379;27;20239;-57
2022/12/23 14:49:13;;;;;;;9.33;8.73;;;7.70;1.00;;;;;;6332390;28;20232;-55
2022/12/23 14:52:58;;;;;;;8.37;7.77;;;7.70;1.00;;;;;;6332756;28;20239;-56
2022/12/23 14:56:21;;;;;;;9.43;8.63;;;7.60;1.00;;;;;;6332861;28;20719;-55
2022/12/23 14:59:34;;;;;;;8.63;8.03;;;7.60;1.00;;;;;;6331408;28;20242;-56
2022/12/23 15:02:40;;;;;;;8.80;8.10;;;7.60;1.00;;;;;;6326717;28;20240;-56
2022/12/23 15:05:43;;;;;;;8.60;7.93;;;7.60;1.00;;;;;;6330122;28;20605;-55
2022/12/23 15:08:48;;;;;;;9.33;8.57;;;7.60;1.00;;;;;;6332392;27;20243;-57
2022/12/23 15:11:52;;;;;;;8.77;8.17;;;7.60;1.00;;;;;;6333155;27;20259;-56
2022/12/23 15:14:58;;;;;;;10.03;9.23;;;7.60;1.00;;;;;;6330815;27;20244;-55
2022/12/23 15:18:05;;;;;;;9.17;8.47;;;7.60;1.00;;;;;;6331842;27;20227;-55
2022/12/23 15:21:12;;;;;;;9.50;8.70;;;7.50;1.00;;;;;;6328311;27;20242;-56
2022/12/23 15:24:17;;;;;;;10.57;9.77;;;7.50;1.00;;;;;;6330177;27;20288;-55
2022/12/23 15:27:21;;;;;;;12.27;11.13;;;7.60;1.00;;;;;;6332119;27;20236;-56
2022/12/23 15:30:33;;;;;;;11.53;10.53;;;7.40;1.00;;;;;;6332340;27;20704;-56
2022/12/23 15:33:38;;;;;;;13.10;11.80;;;7.40;1.00;;;;;;6328878;27;20385;-56
2022/12/23 15:37:01;;;;;;;11.60;10.50;;;7.40;1.00;;;;;;6327917;27;20244;-55
2022/12/23 15:40:05;;;;;;;13.73;12.37;;;7.40;1.00;;;;;;6330097;27;20426;-56
2022/12/23 15:43:19;;;;;;;16.83;14.87;;;7.40;1.00;;;;;;6327811;28;20316;-57
2022/12/23 15:46:23;;;;;;;15.77;13.53;;;7.40;1.00;;;;;;6330892;27;20254;-56
2022/12/23 15:49:33;;;;;;;14.73;13.13;;;7.30;1.00;;;;;;6328124;27;20244;-56
2022/12/23 15:52:39;;;;;;;14.10;12.70;;;7.30;1.00;;;;;;6331825;27;20235;-55
2022/12/23 15:55:43;;;;;;;15.10;13.50;;;7.30;1.00;;;;;;6329591;28;20232;-55
2022/12/23 15:58:47;;;;;;;19.90;16.20;;;7.30;1.00;;;;;;6331671;27;20417;-56
2022/12/23 16:01:50;;;;;;;21.33;17.07;;;7.40;1.00;;;;;;6331506;27;20228;-56
2022/12/23 16:04:59;;;;;;;27.53;20.23;;;7.50;1.00;;;;;;6326952;28;20251;-56
2022/12/23 16:08:11;;;;;;;21.33;17.47;;;7.40;1.00;;;;;;6329686;27;20236;-55
2022/12/23 16:11:16;;;;;;;19.70;16.93;;;7.40;1.00;;;;;;6327450;27;20224;-55
2022/12/23 16:14:24;;;;;;;18.97;16.43;;;7.50;1.00;;;;;;6310117;28;20243;-56
2022/12/23 16:17:32;;;;;;;21.03;17.23;;;7.40;1.00;;;;;;6330904;28;20561;-56
2022/12/23 16:20:42;;;;;;;19.30;15.83;;;7.50;1.00;;;;;;6326074;28;20391;-57
2022/12/23 16:23:50;;;;;;;16.40;14.70;;;7.60;1.00;;;;;;6321760;27;20228;-56
2022/12/23 16:26:55;;;;;;;19.47;16.27;;;7.40;1.00;;;;;;6330608;27;20232;-55
2022/12/23 16:30:01;;;;;;;15.57;14.00;;;7.50;1.00;;;;;;6326131;28;20275;-57
2022/12/23 16:33:06;;;;;;;15.90;14.20;;;7.50;1.00;;;;;;6326907;28;20280;-55
2022/12/23 16:36:20;;;;;;;19.20;16.40;;;7.50;1.00;;;;;;6320205;28;20804;-55
2022/12/23 16:39:23;;;;;;;24.33;18.17;;;7.50;1.00;;;;;;6324836;28;20233;-56
2022/12/23 16:42:26;;;;;;;24.93;21.03;;;7.50;1.00;;;;;;6325866;27;20224;-56